createdAt,value
2024-01-06T00:00:39.384Z,0.39
2024-01-06T00:03:30.522Z,0.34
2024-01-06T00:06:01.954Z,0.35
2024-01-06T00:08:31.606Z,0.33
2024-01-06T00:11:02.701Z,0.31
2024-01-06T00:13:32.084Z,0.33
2024-01-06T00:16:03.226Z,0.38
2024-01-06T00:18:32.762Z,0.35
2024-01-06T00:21:03.967Z,0.33
2024-01-06T00:23:33.616Z,0.36
2024-01-06T00:26:06.200Z,0.41
2024-01-06T00:28:37.486Z,0.40
2024-01-06T00:31:07.893Z,0.41
2024-01-06T00:33:39.431Z,0.34
2024-01-06T00:36:11.159Z,0.31
2024-01-06T00:38:42.238Z,0.29
2024-01-06T00:41:13.313Z,0.32
2024-01-06T00:43:42.621Z,0.34
2024-01-06T00:46:13.640Z,0.27
2024-01-06T00:48:44.896Z,0.28
2024-01-06T00:51:16.182Z,0.32
2024-01-06T00:53:47.280Z,0.36
2024-01-06T00:56:38.869Z,0.30
2024-01-06T00:59:09.900Z,0.25
2024-01-06T01:01:39.276Z,0.22
2024-01-06T01:04:10.679Z,0.26
2024-01-06T01:06:41.863Z,0.28
2024-01-06T01:09:11.329Z,0.29
2024-01-06T01:11:42.958Z,0.25
2024-01-06T01:14:14.031Z,0.27
2024-01-06T01:16:43.354Z,0.29
2024-01-06T01:19:14.996Z,0.29
2024-01-06T01:21:46.201Z,0.31
2024-01-06T01:24:15.612Z,0.34
2024-01-06T01:26:46.594Z,0.36
2024-01-06T01:29:17.749Z,0.39
2024-01-06T01:31:47.171Z,0.40
2024-01-06T01:34:18.561Z,0.42
2024-01-06T01:36:49.711Z,0.41
2024-01-06T01:39:19.139Z,0.42
2024-01-06T01:41:52.859Z,0.39
2024-01-06T01:44:23.908Z,0.38
2024-01-06T01:46:55.120Z,0.40
2024-01-06T01:49:27.857Z,0.36
2024-01-06T01:51:58.950Z,0.33
2024-01-06T01:54:28.334Z,0.26
2024-01-06T01:56:59.437Z,0.20
2024-01-06T01:59:28.773Z,0.21
2024-01-06T02:02:00.104Z,0.24
2024-01-06T02:04:31.419Z,0.23
2024-01-06T02:07:00.735Z,0.23
2024-01-06T02:09:31.906Z,0.24
2024-01-06T02:12:03.293Z,0.20
2024-01-06T02:14:34.801Z,0.16
2024-01-06T02:17:06.091Z,0.17
2024-01-06T02:19:37.370Z,0.17
2024-01-06T02:22:08.574Z,0.14
2024-01-06T02:24:38.058Z,0.16
2024-01-06T02:27:09.180Z,0.15
2024-01-06T02:29:38.553Z,0.14
2024-01-06T02:32:09.758Z,0.12
2024-01-06T02:34:40.905Z,0.19
2024-01-06T02:37:12.120Z,0.25
2024-01-06T02:39:41.531Z,0.31
2024-01-06T02:42:12.683Z,0.27
2024-01-06T02:44:43.738Z,0.24
2024-01-06T02:47:13.217Z,0.27
2024-01-06T02:49:44.379Z,0.32
2024-01-06T02:52:15.552Z,0.41
2024-01-06T02:54:44.936Z,0.41
2024-01-06T02:57:15.999Z,0.41
2024-01-06T02:59:47.462Z,0.41
2024-01-06T03:02:18.474Z,0.40
2024-01-06T03:04:49.741Z,0.34
2024-01-06T03:07:20.733Z,0.31
2024-01-06T03:09:50.239Z,0.34
2024-01-06T03:12:21.409Z,0.34
2024-01-06T03:14:50.999Z,0.31
2024-01-06T03:17:22.009Z,0.25
2024-01-06T03:19:53.637Z,0.23
2024-01-06T03:22:25.166Z,0.21
2024-01-06T03:24:54.652Z,0.24
2024-01-06T03:27:25.840Z,0.19
2024-01-06T03:29:55.210Z,0.14
2024-01-06T03:32:26.269Z,0.09
2024-01-06T03:34:57.419Z,0.08
2024-01-06T03:37:26.790Z,0.15
2024-01-06T03:39:57.956Z,0.18
2024-01-06T03:42:29.091Z,0.18
2024-01-06T03:44:58.486Z,0.14
2024-01-06T03:47:29.535Z,0.14
2024-01-06T03:49:58.928Z,0.17
2024-01-06T03:52:29.951Z,0.17
2024-01-06T03:55:01.141Z,0.14
2024-01-06T03:57:32.752Z,0.10
2024-01-06T04:00:04.375Z,0.08
2024-01-06T04:02:35.424Z,0.11
2024-01-06T04:05:07.188Z,0.06
2024-01-06T04:07:38.178Z,0.06
2024-01-06T04:10:10.587Z,0.10
2024-01-06T04:12:41.642Z,0.10
2024-01-06T04:15:11.161Z,0.15
2024-01-06T04:17:42.324Z,0.18
2024-01-06T04:20:15.497Z,0.21
2024-01-06T04:22:46.548Z,0.25
2024-01-06T04:25:17.687Z,0.22
2024-01-06T04:27:47.049Z,0.21
2024-01-06T04:30:18.876Z,0.23
2024-01-06T04:32:50.795Z,0.24
2024-01-06T04:35:23.633Z,0.28
2024-01-06T04:37:54.904Z,0.26
2024-01-06T04:40:26.275Z,0.22
2024-01-06T04:42:57.321Z,0.17
2024-01-06T04:45:28.814Z,0.12
2024-01-06T04:48:00.063Z,0.14
2024-01-06T04:50:29.422Z,0.21
2024-01-06T04:53:00.411Z,0.18
2024-01-06T04:55:37.642Z,0.13
2024-01-06T04:58:08.623Z,0.15
2024-01-06T05:00:39.767Z,0.16
2024-01-06T05:03:10.940Z,0.18
2024-01-06T05:05:42.661Z,0.19
2024-01-06T05:08:13.746Z,0.19
2024-01-06T05:10:45.344Z,0.20
2024-01-06T05:13:21.127Z,0.17
2024-01-06T05:15:52.188Z,0.15
2024-01-06T05:18:23.358Z,0.16
2024-01-06T05:20:55.104Z,0.22
2024-01-06T05:23:26.569Z,0.22
2024-01-06T05:25:57.687Z,0.22
2024-01-06T05:28:26.988Z,0.22
2024-01-06T05:30:58.145Z,0.19
2024-01-06T05:33:29.294Z,0.15
2024-01-06T05:35:58.711Z,0.10
2024-01-06T05:38:29.701Z,0.06
2024-01-06T05:41:00.744Z,0.04
2024-01-06T05:43:30.105Z,0.06
2024-01-06T05:46:01.295Z,0.09
2024-01-06T05:48:30.929Z,0.10
2024-01-06T05:51:02.437Z,0.09
2024-01-06T05:53:33.542Z,0.10
2024-01-06T05:56:11.620Z,0.15
2024-01-06T05:58:42.644Z,0.20
2024-01-06T06:01:12.166Z,0.22
2024-01-06T06:03:43.578Z,0.18
2024-01-06T06:06:14.755Z,0.12
2024-01-06T06:08:48.106Z,0.03
2024-01-06T06:11:19.246Z,-0.02
2024-01-06T06:13:48.530Z,-0.08
2024-01-06T06:16:19.674Z,-0.09
2024-01-06T06:18:49.033Z,-0.06
2024-01-06T06:21:20.263Z,-0.05
2024-01-06T06:23:49.578Z,-0.09
2024-01-06T06:26:20.813Z,-0.10
2024-01-06T06:28:52.050Z,-0.13
2024-01-06T06:31:23.770Z,-0.16
2024-01-06T06:33:55.160Z,-0.12
2024-01-06T06:36:26.410Z,-0.10
2024-01-06T06:38:57.528Z,-0.12
2024-01-06T06:41:28.561Z,-0.09
2024-01-06T06:44:21.356Z,-0.06
2024-01-06T06:46:50.110Z,-0.05
2024-01-06T06:49:19.505Z,-0.02
2024-01-06T06:51:50.658Z,0.01
2024-01-06T06:54:22.464Z,-0.03
2024-01-06T06:57:06.813Z,-0.11
2024-01-06T06:59:37.811Z,-0.13
2024-01-06T07:02:11.771Z,-0.14
2024-01-06T07:04:43.342Z,-0.10
2024-01-06T07:07:12.699Z,-0.12
2024-01-06T07:09:47.259Z,-0.18
2024-01-06T07:12:18.375Z,-0.22
2024-01-06T07:14:47.712Z,-0.32
2024-01-06T07:17:19.395Z,-0.36
2024-01-06T07:19:51.147Z,-0.40
2024-01-06T07:22:22.476Z,-0.38
2024-01-06T07:24:52.254Z,-0.39
2024-01-06T07:27:23.317Z,-0.43
2024-01-06T07:29:55.967Z,-0.42
2024-01-06T07:32:27.317Z,-0.40
2024-01-06T07:34:58.611Z,-0.38
2024-01-06T07:37:29.684Z,-0.35
2024-01-06T07:39:59.014Z,-0.33
2024-01-06T07:42:36.960Z,-0.38
2024-01-06T07:45:10.095Z,-0.40
2024-01-06T07:47:41.199Z,-0.39
2024-01-06T07:50:12.298Z,-0.40
2024-01-06T07:52:43.342Z,-0.43
2024-01-06T07:55:14.398Z,-0.43
2024-01-06T07:57:44.442Z,-0.45
2024-01-06T08:00:16.905Z,-0.42
2024-01-06T08:02:47.995Z,-0.42
2024-01-06T08:05:17.394Z,-0.40
2024-01-06T08:07:48.950Z,-0.38
2024-01-06T08:10:23.215Z,-0.37
2024-01-06T08:12:55.033Z,-0.45
2024-01-06T08:15:26.209Z,-0.50
2024-01-06T08:17:55.794Z,-0.50
2024-01-06T08:20:26.916Z,-0.44
2024-01-06T08:22:56.325Z,-0.37
2024-01-06T08:25:27.533Z,-0.38
2024-01-06T08:27:58.649Z,-0.42
2024-01-06T08:30:28.206Z,-0.36
2024-01-06T08:32:59.361Z,-0.37
2024-01-06T08:35:28.780Z,-0.37
2024-01-06T08:38:00.251Z,-0.31
2024-01-06T08:40:31.271Z,-0.22
2024-01-06T08:43:02.688Z,-0.22
2024-01-06T08:45:33.805Z,-0.24
2024-01-06T08:48:05.956Z,-0.26
2024-01-06T08:50:37.336Z,-0.24
2024-01-06T08:53:08.653Z,-0.23
2024-01-06T08:55:40.069Z,-0.26
2024-01-06T08:58:11.160Z,-0.27
2024-01-06T09:00:40.491Z,-0.24
2024-01-06T09:03:45.407Z,-0.25
2024-01-06T09:06:07.611Z,-0.26
2024-01-06T09:08:38.692Z,-0.24
2024-01-06T09:11:08.087Z,-0.25
2024-01-06T09:13:39.160Z,-0.24
2024-01-06T09:16:08.695Z,-0.23
2024-01-06T09:18:39.987Z,-0.19
2024-01-06T09:21:11.080Z,-0.11
2024-01-06T09:23:42.110Z,-0.04
2024-01-06T09:26:13.336Z,-0.01
2024-01-06T09:28:44.470Z,-0.01
2024-01-06T09:31:15.655Z,-0.04
2024-01-06T09:33:55.556Z,0.00
2024-01-06T09:36:26.644Z,0.04
2024-01-06T09:38:57.697Z,-0.02
2024-01-06T09:41:27.140Z,-0.04
2024-01-06T09:44:22.958Z,-0.04
2024-01-06T09:46:52.428Z,-0.02
2024-01-06T09:49:26.948Z,-0.08
2024-01-06T09:52:05.113Z,-0.09
2024-01-06T09:54:39.780Z,-0.05
2024-01-06T09:57:11.554Z,-0.00
2024-01-06T09:59:45.098Z,0.05
2024-01-06T10:02:17.734Z,0.12
2024-01-06T10:04:49.678Z,0.06
2024-01-06T10:07:20.943Z,0.01
2024-01-06T10:09:55.427Z,0.09
2024-01-06T10:12:30.139Z,0.17
2024-01-06T10:15:05.692Z,0.17
2024-01-06T10:17:39.253Z,0.11
2024-01-06T10:20:13.079Z,0.09
2024-01-06T10:22:44.781Z,0.17
2024-01-06T10:25:15.941Z,0.26
2024-01-06T10:27:45.330Z,0.26
2024-01-06T10:30:16.880Z,0.22
2024-01-06T10:32:48.278Z,0.29
2024-01-06T10:35:20.335Z,0.38
2024-01-06T10:37:53.052Z,0.44
2024-01-06T10:40:24.376Z,0.46
2024-01-06T10:42:56.962Z,0.48
2024-01-06T10:45:29.412Z,0.47
2024-01-06T10:48:00.900Z,0.38
2024-01-06T10:50:32.942Z,0.29
2024-01-06T10:53:05.126Z,0.29
2024-01-06T10:55:44.487Z,0.24
2024-01-06T10:58:18.295Z,0.23
2024-01-06T11:00:50.955Z,0.29
2024-01-06T11:03:23.272Z,0.21
2024-01-06T11:05:54.595Z,0.20
2024-01-06T11:08:26.718Z,0.16
2024-01-06T11:10:59.397Z,0.20
2024-01-06T11:13:30.404Z,0.20
2024-01-06T11:16:00.746Z,0.14
2024-01-06T11:18:37.288Z,0.09
2024-01-06T11:21:22.439Z,0.12
2024-01-06T11:24:19.256Z,0.15
2024-01-06T11:26:53.318Z,0.09
2024-01-06T11:29:26.857Z,-0.02
2024-01-06T11:32:31.218Z,-0.06
2024-01-06T11:35:09.985Z,-0.08
2024-01-06T11:37:55.210Z,-0.11
2024-01-06T11:40:38.382Z,-0.11
2024-01-06T11:43:13.336Z,-0.12
2024-01-06T11:45:44.773Z,-0.21
2024-01-06T11:48:32.576Z,-0.19
2024-01-06T11:51:04.581Z,-0.12
2024-01-06T11:53:36.250Z,-0.11
2024-01-06T11:56:10.099Z,-0.16
2024-01-06T11:58:43.420Z,-0.10
2024-01-06T12:01:14.622Z,-0.13
2024-01-06T12:03:54.550Z,-0.17
2024-01-06T12:06:28.494Z,-0.22
2024-01-06T12:09:05.755Z,-0.27
2024-01-06T12:11:37.770Z,-0.23
2024-01-06T12:14:08.822Z,-0.17
2024-01-06T12:16:38.296Z,-0.09
2024-01-06T12:19:09.549Z,-0.06
2024-01-06T12:21:41.180Z,-0.14
2024-01-06T12:24:23.207Z,-0.15
2024-01-06T12:26:56.101Z,-0.10
2024-01-06T12:29:29.320Z,-0.07
2024-01-06T12:32:02.104Z,-0.12
2024-01-06T12:34:33.689Z,-0.18
2024-01-06T12:37:08.746Z,-0.17
2024-01-06T12:39:40.402Z,-0.18
2024-01-06T12:42:16.174Z,-0.16
2024-01-06T12:44:48.139Z,-0.09
2024-01-06T12:47:17.626Z,-0.07
2024-01-06T12:49:49.385Z,-0.00
2024-01-06T12:52:21.709Z,0.02
2024-01-06T12:54:53.063Z,-0.07
2024-01-06T12:57:26.575Z,-0.11
2024-01-06T12:59:57.925Z,-0.10
2024-01-06T13:02:29.396Z,-0.10
2024-01-06T13:04:58.833Z,-0.06
2024-01-06T13:07:39.845Z,-0.00
2024-01-06T13:10:11.742Z,0.05
2024-01-06T13:12:43.010Z,0.01
2024-01-06T13:15:14.259Z,0.02
2024-01-06T13:17:48.794Z,0.02
2024-01-06T13:20:20.617Z,0.06
2024-01-06T13:22:54.245Z,0.07
2024-01-06T13:25:25.429Z,0.00
2024-01-06T13:27:56.549Z,-0.07
2024-01-06T13:30:27.816Z,-0.07
2024-01-06T13:33:01.187Z,-0.05
2024-01-06T13:35:32.357Z,-0.04
2024-01-06T13:38:01.958Z,-0.08
2024-01-06T13:40:33.515Z,-0.14
2024-01-06T13:43:05.280Z,-0.13
2024-01-06T13:45:36.718Z,-0.09
2024-01-06T13:48:10.563Z,-0.12
2024-01-06T13:50:42.072Z,-0.19
2024-01-06T13:53:13.361Z,-0.24
2024-01-06T13:55:46.093Z,-0.31
2024-01-06T13:58:37.658Z,-0.35
2024-01-06T14:01:10.385Z,-0.38
2024-01-06T14:04:05.347Z,-0.42
2024-01-06T14:06:36.976Z,-0.38
2024-01-06T14:09:08.330Z,-0.36
2024-01-06T14:12:02.762Z,-0.40
2024-01-06T14:15:26.828Z,-0.46
2024-01-06T14:17:37.511Z,-0.42
2024-01-06T14:20:44.061Z,-0.43
2024-01-06T14:23:39.655Z,-0.42
2024-01-06T14:26:16.825Z,-0.48
2024-01-06T14:29:14.671Z,-0.56
2024-01-06T14:31:46.237Z,-0.60
2024-01-06T14:34:17.695Z,-0.59
2024-01-06T14:36:49.257Z,-0.57
2024-01-06T14:39:20.792Z,-0.60
2024-01-06T14:41:52.200Z,-0.60
2024-01-06T14:44:25.699Z,-0.62
2024-01-06T14:47:20.233Z,-0.64
2024-01-06T14:49:48.834Z,-0.60
2024-01-06T14:52:26.057Z,-0.54
2024-01-06T14:54:57.613Z,-0.47
2024-01-06T14:57:29.940Z,-0.45
2024-01-06T15:00:25.707Z,-0.48
2024-01-06T15:03:56.378Z,-0.55
2024-01-06T15:07:17.550Z,-0.59
2024-01-06T15:10:25.022Z,-0.55
2024-01-06T15:15:30.476Z,-0.62
2024-01-06T15:21:03.534Z,-0.70
2024-01-06T15:23:20.568Z,-0.63
2024-01-06T15:25:49.961Z,-0.56
2024-01-06T15:28:21.110Z,-0.54
2024-01-06T15:30:52.433Z,-0.60
2024-01-06T15:33:23.963Z,-0.64
2024-01-06T15:36:00.216Z,-0.70
2024-01-06T15:38:31.540Z,-0.66
2024-01-06T15:41:12.484Z,-0.64
2024-01-06T15:43:43.547Z,-0.66
2024-01-06T15:46:15.145Z,-0.71
2024-01-06T15:48:46.385Z,-0.67
2024-01-06T15:51:17.896Z,-0.69
2024-01-06T15:53:48.909Z,-0.66
2024-01-06T15:56:25.312Z,-0.65
2024-01-06T15:58:56.277Z,-0.63
2024-01-06T16:01:27.499Z,-0.60
2024-01-06T16:03:59.052Z,-0.65
2024-01-06T16:06:34.543Z,-0.68
2024-01-06T16:09:09.440Z,-0.71
2024-01-06T16:11:44.338Z,-0.74
2024-01-06T16:14:15.372Z,-0.81
2024-01-06T16:16:46.938Z,-0.82
2024-01-06T16:19:18.295Z,-0.84
2024-01-06T16:21:54.261Z,-0.82
2024-01-06T16:24:28.912Z,-0.76
2024-01-06T16:27:00.043Z,-0.75
2024-01-06T16:29:29.412Z,-0.78
2024-01-06T16:32:00.532Z,-0.82
2024-01-06T16:34:30.240Z,-0.81
2024-01-06T16:36:59.801Z,-0.88
2024-01-06T16:39:29.172Z,-0.94
2024-01-06T16:41:59.052Z,-0.93
2024-01-06T16:44:31.639Z,-0.93
2024-01-06T16:47:07.601Z,-0.88
2024-01-06T16:49:40.988Z,-0.87
2024-01-06T16:52:10.431Z,-0.90
2024-01-06T16:54:40.013Z,-0.95
2024-01-06T16:57:09.361Z,-0.96
2024-01-06T16:59:48.664Z,-0.94
2024-01-06T17:02:18.062Z,-0.93
2024-01-06T17:04:47.762Z,-0.93
2024-01-06T17:07:31.091Z,-0.97
2024-01-06T17:10:01.347Z,-0.99
2024-01-06T17:12:30.885Z,-0.97
2024-01-06T17:15:00.993Z,-0.95
2024-01-06T17:17:30.519Z,-0.96
2024-01-06T17:20:02.907Z,-0.95
2024-01-06T17:22:45.342Z,-0.92
2024-01-06T17:25:17.925Z,-0.93
2024-01-06T17:27:47.532Z,-0.99
2024-01-06T17:30:19.409Z,-0.93
2024-01-06T17:32:48.989Z,-0.89
2024-01-06T17:35:18.816Z,-0.91
2024-01-06T17:37:48.262Z,-0.98
2024-01-06T17:40:18.105Z,-1.02
2024-01-06T17:43:00.466Z,-0.99
2024-01-06T17:45:48.235Z,-0.95
2024-01-06T17:48:19.944Z,-1.02
2024-01-06T17:51:19.722Z,-1.08
2024-01-06T17:53:39.222Z,-1.12
2024-01-06T17:56:08.866Z,-1.20
2024-01-06T17:58:38.319Z,-1.21
2024-01-06T18:01:07.791Z,-1.30
2024-01-06T18:03:37.227Z,-1.31
2024-01-06T18:06:07.152Z,-1.34
2024-01-06T18:08:36.734Z,-1.34
2024-01-06T18:11:07.780Z,-1.32
2024-01-06T18:13:37.807Z,-1.33
2024-01-06T18:16:07.636Z,-1.31
2024-01-06T18:18:37.361Z,-1.28
2024-01-06T18:21:06.935Z,-1.33
2024-01-06T18:23:36.336Z,-1.39
2024-01-06T18:26:06.823Z,-1.40
2024-01-06T18:28:36.123Z,-1.45
2024-01-06T18:31:05.616Z,-1.39
2024-01-06T18:33:36.801Z,-1.32
2024-01-06T18:36:08.547Z,-1.29
2024-01-06T18:41:18.946Z,-1.23
2024-01-06T18:43:48.279Z,-1.26
2024-01-06T18:46:19.415Z,-1.23
2024-01-06T18:48:49.041Z,-1.20
2024-01-06T18:51:21.913Z,-1.19
2024-01-06T18:53:55.012Z,-1.17
2024-01-06T18:56:26.065Z,-1.18
2024-01-06T18:58:57.181Z,-1.14
2024-01-06T19:01:26.985Z,-1.07
2024-01-06T19:03:58.212Z,-1.11
2024-01-06T19:06:29.368Z,-1.08
2024-01-06T19:09:30.537Z,-1.01
2024-01-06T19:11:59.739Z,-1.03
2024-01-06T19:14:30.941Z,-1.05
2024-01-06T19:17:00.251Z,-1.08
2024-01-06T19:19:31.531Z,-1.14
2024-01-06T19:22:02.842Z,-1.21
2024-01-06T19:24:40.449Z,-1.25
2024-01-06T19:27:17.534Z,-1.21
2024-01-06T19:29:58.562Z,-1.27
2024-01-06T19:32:29.713Z,-1.25
2024-01-06T19:35:04.076Z,-1.24
2024-01-06T19:37:35.221Z,-1.22
2024-01-06T19:40:05.209Z,-1.23
2024-01-06T19:42:39.638Z,-1.24
2024-01-06T19:45:11.579Z,-1.25
2024-01-06T19:47:44.430Z,-1.24
2024-01-06T19:50:41.303Z,-1.23
2024-01-06T19:53:11.352Z,-1.27
2024-01-06T19:55:44.306Z,-1.26
2024-01-06T19:58:38.802Z,-1.27
2024-01-06T20:01:39.089Z,-1.27
2024-01-06T20:04:11.089Z,-1.26
2024-01-06T20:06:44.836Z,-1.22
2024-01-06T20:09:48.573Z,-1.24
2024-01-06T20:12:11.384Z,-1.20
2024-01-06T20:14:42.665Z,-1.17
2024-01-06T20:17:13.833Z,-1.13
2024-01-06T20:20:12.040Z,-1.07
2024-01-06T20:22:40.846Z,-1.08
2024-01-06T20:25:10.918Z,-1.08
2024-01-06T20:27:44.601Z,-1.09
2024-01-06T20:30:16.718Z,-1.09
2024-01-06T20:32:53.704Z,-1.12
2024-01-06T20:35:25.008Z,-1.10
2024-01-06T20:37:56.838Z,-1.19
2024-01-06T20:40:33.246Z,-1.19
2024-01-06T20:43:05.139Z,-1.22
2024-01-06T20:45:36.307Z,-1.32
2024-01-06T20:48:06.419Z,-1.34
2024-01-06T20:50:44.817Z,-1.33
2024-01-06T20:53:16.346Z,-1.33
2024-01-06T20:55:48.927Z,-1.38
2024-01-06T20:58:20.343Z,-1.33
2024-01-06T21:00:52.747Z,-1.26
2024-01-06T21:03:26.374Z,-1.30
2024-01-06T21:05:57.934Z,-1.36
2024-01-06T21:08:28.956Z,-1.39
2024-01-06T21:11:00.626Z,-1.37
2024-01-06T21:13:31.989Z,-1.38
2024-01-06T21:16:03.276Z,-1.36
2024-01-06T21:18:35.008Z,-1.35
2024-01-06T21:21:06.392Z,-1.38
2024-01-06T21:23:44.921Z,-1.40
2024-01-06T21:26:20.642Z,-1.42
2024-01-06T21:28:52.669Z,-1.48
2024-01-06T21:31:24.015Z,-1.47
2024-01-06T21:33:58.261Z,-1.48
2024-01-06T21:36:29.499Z,-1.45
2024-01-06T21:39:00.629Z,-1.40
2024-01-06T21:41:32.252Z,-1.39
2024-01-06T21:44:01.549Z,-1.43
2024-01-06T21:46:33.452Z,-1.47
2024-01-06T21:49:04.629Z,-1.51
2024-01-06T21:51:46.477Z,-1.51
2024-01-06T21:54:17.606Z,-1.48
2024-01-06T21:56:47.816Z,-1.49
2024-01-06T21:59:18.843Z,-1.55
2024-01-06T22:01:49.992Z,-1.52
2024-01-06T22:04:21.078Z,-1.46
2024-01-06T22:06:50.678Z,-1.48
2024-01-06T22:09:32.949Z,-1.46
2024-01-06T22:12:04.266Z,-1.51
2024-01-06T22:14:36.227Z,-1.51
2024-01-06T22:17:07.712Z,-1.48
2024-01-06T22:19:38.785Z,-1.42
2024-01-06T22:22:30.530Z,-1.50
2024-01-06T22:25:01.759Z,-1.52
2024-01-06T22:27:32.988Z,-1.52
2024-01-06T22:30:04.102Z,-1.52
2024-01-06T22:32:35.541Z,-1.51
2024-01-06T22:35:08.259Z,-1.42
2024-01-06T22:37:39.341Z,-1.40
2024-01-06T22:40:10.749Z,-1.37
2024-01-06T22:42:41.984Z,-1.40
2024-01-06T22:45:11.557Z,-1.44
2024-01-06T22:47:42.734Z,-1.50
2024-01-06T22:50:13.992Z,-1.54
2024-01-06T22:52:45.170Z,-1.53
2024-01-06T22:55:16.436Z,-1.55
2024-01-06T22:57:47.585Z,-1.58
2024-01-06T23:03:24.939Z,-1.67
2024-01-06T23:05:56.125Z,-1.64
2024-01-06T23:08:25.467Z,-1.66
2024-01-06T23:10:58.659Z,-1.71
2024-01-06T23:13:30.485Z,-1.83
2024-01-06T23:16:01.587Z,-1.83
2024-01-06T23:18:33.199Z,-1.82
2024-01-06T23:21:04.695Z,-1.79
2024-01-06T23:23:37.278Z,-1.82
2024-01-06T23:26:08.392Z,-1.92
2024-01-06T23:28:37.758Z,-2.00
2024-01-06T23:31:08.934Z,-2.06
2024-01-06T23:33:41.603Z,-2.16
2024-01-06T23:36:12.807Z,-2.20
2024-01-06T23:38:43.814Z,-2.19
2024-01-06T23:41:15.342Z,-2.15
2024-01-06T23:43:46.803Z,-2.16
2024-01-06T23:46:16.075Z,-2.21
2024-01-06T23:48:47.173Z,-2.25
2024-01-06T23:51:20.517Z,-2.28
2024-01-06T23:53:53.792Z,-2.29
2024-01-06T23:56:25.477Z,-2.38
2024-01-06T23:58:56.603Z,-2.40
